METAR Data
IDs: Format: Raw Decoded Include TAF

Data at: 1715 UTC 21 Sep 2018

KLRD 211656Z 16015G21KT 10SM SCT030 31/23 A2991 RMK AO2 SLP126 T03110233
KLRD 211556Z 15014KT 10SM CLR 30/23 A2992 RMK AO2 SLP129 T03000228
KLRD 211456Z 15014KT 10SM SCT020 28/23 A2991 RMK AO2 SLP128 T02830233 51010
KLRD 211448Z 16016KT 10SM SCT018 29/24 A2991 RMK AO2
KLRD 211428Z 15014KT 10SM BKN015 28/24 A2991 RMK AO2
KLRD 211356Z 15016KT 10SM BKN011 27/24 A2990 RMK AO2 SLP124 T02720239
KLRD 211352Z 14014G20KT 10SM BKN011 27/24 A2990 RMK AO2
KLRD 211343Z 14012KT 10SM BKN009 27/24 A2990 RMK AO2 CIG 009V013
KLRD 211318Z 14011KT 10SM FEW009 26/24 A2989 RMK AO2
KLRD 211256Z 13012KT 10SM CLR 26/24 A2988 RMK AO2 SLP118 T02560239
KLRD 211156Z 14012KT 10SM CLR 26/24 A2987 RMK AO2 SLP115 T02560239 10278 20256 53003
KLRD 211056Z 14010KT 10SM CLR 26/ A2986 RMK AO2 SLP111 T0256
KLRD 210956Z AUTO 14010KT 10SM CLR 26/24 A2986 RMK AO2 SLP110 T02610239
KLRD 210856Z AUTO 13011KT 10SM CLR 26/24 A2987 RMK AO2 SLP111 T02610239 58008
KLRD 210756Z AUTO 14009KT 10SM CLR 26/23 A2988 RMK AO2 SLP115 T02610233
KLRD 210656Z AUTO 15014KT 10SM CLR 27/23 A2988 RMK AO2 SLP118 T02720233
KLRD 210556Z AUTO 14011KT 10SM CLR 28/23 A2989 RMK AO2 SLP120 T02780233 10317 20278 50006
KLRD 210456Z AUTO 14013KT 10SM CLR 28/23 A2989 RMK AO2 SLP120 T02830233 403330256
KLRD 210356Z 14012KT 10SM CLR 29/23 A2988 RMK AO2 SLP119 T02890233
KLRD 210256Z 12010KT 10SM CLR 29/23 A2987 RMK AO2 SLP114 T02940233 53014
KLRD 210156Z 12008KT 10SM CLR 29/23 A2986 RMK AO2 SLP109 T02940233
KLRD 210056Z 13007KT 10SM CLR 30/23 A2984 RMK AO2 SLP104 T03000233
KLRD 202356Z 15009KT 10SM CLR 32/23 A2983 RMK AO2 SLP100 60000 T03170228 10333 20278 55006
KLRD 202256Z 14013KT 10SM CLR 32/22 A2982 RMK AO2 SLP098 T03220222
KLRD 202156Z 13013KT 10SM SCT046 BKN050 33/23 A2983 RMK AO2 SLP099 T03330233
KLRD 202056Z 15013KT 10SM SCT043 33/23 A2985 RMK AO2 SLP106 60000 T03280233 56027
KLRD 201956Z 14014KT 10SM BKN032 32/24 A2987 RMK AO2 RAE09 SLP114 P0000 T03170239
KLRD 201856Z 14010KT 10SM -RA SCT024 BKN031 BKN048 29/24 A2990 RMK AO2 RAB38 SLP125 P0000 T02890244
KLRD 201756Z 12009KT 10SM FEW037 SCT070 BKN090 28/24 A2993 RMK AO2 RAB05E43 SLP135 P0000 60000 T02780244 10278 20256 58004
KLRD 201717Z 13009KT 10SM -RA SCT019 SCT065 BKN080 27/24 A2994 RMK AO2 RAB05 P0000
KLRD 201656Z 14010KT 10SM BKN019 28/24 A2995 RMK AO2 SLP142 T02780239
KLRD 201633Z 15010KT 10SM FEW019 SCT025 27/24 A2995 RMK AO2
KLRD 201556Z 16014KT 10SM BKN017 27/24 A2994 RMK AO2 SLP140 T02720239
KLRD 201514Z 15011KT 10SM OVC015 27/24 A2994 RMK AO2
KLRD 201456Z 16012KT 10SM OVC013 27/24 A2993 RMK AO2 SLP135 T02670244 53011
KLRD 201356Z 15012KT 10SM BKN011 27/24 A2992 RMK AO2 SLP132 T02670244
KLRD 201349Z 14012KT 10SM BKN011 27/24 A2992 RMK AO2
KLRD 201310Z 14009KT 10SM FEW009 BKN120 26/24 A2991 RMK AO2
KLRD 201256Z 13012KT 10SM BKN110 26/24 A2990 RMK AO2 SLP124 T02560239
KLRD 201156Z 13008KT 10SM OVC100 26/24 A2990 RMK AO2 RAB33E50 SLP123 P0000 60000 T02560239 10267 20256 56004
KLRD 201056Z 12007KT 10SM FEW013 SCT055 OVC100 26/23 A2990 RMK AO2 RAB28E45 SLP125 P0000 T02560233
KLRD 201044Z AUTO 12007KT 10SM -RA SCT015 OVC100 26/23 A2990 RMK AO2 RAB28 P0000
KLRD 201018Z AUTO 13007KT 10SM BKN015 OVC100 26/23 A2990 RMK AO2
KLRD 200956Z AUTO 13007KT 10SM FEW015 OVC110 26/23 A2990 RMK AO2 RAE0857 SLP124 T02560233
KLRD 200856Z AUTO 14008KT 10SM -RA BKN110 26/23 A2991 RMK AO2 RAB14 SLP127 P0000 60000 T02560233 58005
KLRD 200756Z AUTO 14007KT 10SM CLR 26/23 A2992 RMK AO2 SLP131 T02610233
KLRD 200656Z AUTO 14010KT 10SM FEW080 26/24 A2992 RMK AO2 SLP131 T02610239
KLRD 200556Z AUTO 13007KT 10SM CLR 27/24 A2993 RMK AO2 SLP133 T02670244 10294 20267 51007